South Sheridan, Arkansas
Current Conditions -  °F | °C
As of 11:53 PM on Sunday 25 Jan 2015 (Local Time) from KPBF Reporting Station
Overcast Overcast  
Wind Chill: 40°   Ceiling: 3600
Heat Index: 46°   Visibility: 10mi
Dew Point: 33°   Wind: 15mph
Humidity: 61%   Direction: 320°NW
Pressure: 30.03"   Gusts: 26mph
Location:  34.3151°N, 92.3357°W
Report Text: KPBF 260553Z AUTO 32013G23KT 10SM OVC036 08/01 A3003 RMK AO2 SLP166 T00780006 10117 20078 401720033 53021
Loading
Personal Weather Stations






























Interactive Weather Map New forecast layout! Learn more

10-Day Weather Forecast

Advertisements
Track Severe Weather on mobile